Aviation Digital Data Service (ADDS)

Output produced by METARs form (1007 UTC 23 October 2017)
found at http://aviationweather.gov/adds/metars/
 
KPIT 230948Z 2310/2412 15005KT P6SM BKN200 
     FM231700 16015G22KT P6SM -SHRA BKN050 
     FM232200 16012G20KT 4SM RA OVC015 
     FM240700 20010G18KT P6SM OVC010